createdAt,value
2022-08-01T00:00:32.401Z,14.50
2022-08-01T00:03:02.771Z,14.30
2022-08-01T00:05:35.996Z,14.32
2022-08-01T00:08:06.388Z,15.65
2022-08-01T00:10:36.608Z,13.55
2022-08-01T00:13:08.170Z,16.02
2022-08-01T00:15:40.909Z,11.88
2022-08-01T00:18:24.992Z,14.65
2022-08-01T00:21:01.283Z,14.73
2022-08-01T00:23:31.190Z,11.68
2022-08-01T00:26:01.607Z,13.50
2022-08-01T00:28:34.640Z,12.50
2022-08-01T00:31:05.231Z,11.02
2022-08-01T00:33:35.238Z,13.38
2022-08-01T00:36:08.408Z,13.55
2022-08-01T00:38:38.381Z,12.07
2022-08-01T00:41:08.485Z,13.13
2022-08-01T00:43:38.649Z,16.65
2022-08-01T00:46:08.722Z,14.57
2022-08-01T00:48:38.956Z,12.20
2022-08-01T00:51:15.011Z,14.10
2022-08-01T00:53:51.887Z,15.05
2022-08-01T00:56:24.383Z,14.63
2022-08-01T00:59:00.276Z,14.43
2022-08-01T01:01:39.844Z,14.20
2022-08-01T01:04:12.938Z,13.13
2022-08-01T01:07:01.801Z,9.00
2022-08-01T01:09:42.513Z,7.28
2022-08-01T01:12:26.390Z,6.80
2022-08-01T01:15:05.547Z,10.82
2022-08-01T01:17:50.105Z,7.32
2022-08-01T01:20:22.326Z,9.50
2022-08-01T01:23:10.976Z,7.70
2022-08-01T01:26:13.941Z,8.25
2022-08-01T01:29:01.816Z,5.85
2022-08-01T01:31:34.995Z,7.43
2022-08-01T01:34:07.141Z,6.72
2022-08-01T01:36:39.515Z,9.63
2022-08-01T01:39:11.040Z,8.07
2022-08-01T01:41:44.152Z,7.60
2022-08-01T01:44:18.958Z,7.18
2022-08-01T01:46:50.283Z,11.10
2022-08-01T01:49:26.474Z,8.65
2022-08-01T01:52:02.476Z,7.03
2022-08-01T01:54:36.880Z,7.90
2022-08-01T01:57:09.183Z,6.82
2022-08-01T01:59:43.593Z,7.20
2022-08-01T02:02:18.034Z,8.43
2022-08-01T02:04:53.683Z,8.85
2022-08-01T02:07:29.317Z,7.80
2022-08-01T02:10:00.997Z,7.43
2022-08-01T02:12:34.136Z,8.95
2022-08-01T02:15:10.719Z,9.32
2022-08-01T02:17:45.460Z,10.52
2022-08-01T02:20:18.000Z,9.55
2022-08-01T02:22:52.635Z,8.98
2022-08-01T02:25:28.401Z,10.75
2022-08-01T02:28:05.207Z,9.25
2022-08-01T02:30:40.213Z,11.27
2022-08-01T02:33:17.318Z,9.68
2022-08-01T02:36:29.030Z,9.05
2022-08-01T02:38:47.588Z,9.35
2022-08-01T02:41:24.077Z,9.43
2022-08-01T02:44:00.787Z,11.82
2022-08-01T02:46:40.455Z,11.52
2022-08-01T02:49:14.155Z,10.30
2022-08-01T02:51:45.705Z,8.63
2022-08-01T02:54:16.083Z,9.90
2022-08-01T02:56:47.612Z,10.30
2022-08-01T02:59:22.338Z,11.07
2022-08-01T03:02:00.736Z,11.55
2022-08-01T03:04:34.564Z,11.05
2022-08-01T03:07:07.498Z,9.48
2022-08-01T03:09:42.661Z,8.85
2022-08-01T03:12:17.707Z,8.38
2022-08-01T03:14:52.831Z,9.50
2022-08-01T03:17:29.083Z,7.72
2022-08-01T03:20:02.186Z,7.85
2022-08-01T03:22:33.793Z,8.63
2022-08-01T03:25:07.343Z,6.88
2022-08-01T03:30:11.682Z,6.50
2022-08-01T03:32:56.592Z,6.05
2022-08-01T03:35:31.071Z,5.57
2022-08-01T03:38:16.421Z,5.72
2022-08-01T03:40:52.753Z,8.55
2022-08-01T03:43:31.380Z,5.00
2022-08-01T03:46:08.946Z,4.85
2022-08-01T03:48:46.683Z,3.22
2022-08-01T03:51:22.832Z,5.22
2022-08-01T03:53:56.759Z,4.35
2022-08-01T03:56:30.004Z,4.50
2022-08-01T03:59:00.991Z,4.65
2022-08-01T04:01:32.085Z,5.10
2022-08-01T04:04:07.085Z,5.50
2022-08-01T04:06:37.130Z,5.35
2022-08-01T04:09:12.818Z,5.20
2022-08-01T04:11:43.847Z,6.75
2022-08-01T04:14:14.900Z,6.18
2022-08-01T04:16:44.943Z,5.75
2022-08-01T04:19:18.675Z,6.20
2022-08-01T04:21:48.788Z,5.97
2022-08-01T04:24:25.588Z,6.80
2022-08-01T04:26:59.866Z,5.88
2022-08-01T04:29:31.778Z,5.35
2022-08-01T04:32:05.526Z,6.70
2022-08-01T04:34:38.981Z,6.03
2022-08-01T04:37:13.910Z,8.52
2022-08-01T04:39:50.819Z,6.00
2022-08-01T04:42:25.068Z,8.18
2022-08-01T04:44:58.841Z,7.43
2022-08-01T04:47:30.937Z,6.78
2022-08-01T04:50:04.806Z,7.68
2022-08-01T04:52:37.739Z,6.63
2022-08-01T04:55:10.455Z,6.75
2022-08-01T04:57:41.678Z,8.83
2022-08-01T05:00:13.088Z,6.82
2022-08-01T05:02:43.966Z,8.52
2022-08-01T05:05:16.663Z,7.85
2022-08-01T05:07:47.124Z,7.80
2022-08-01T05:10:18.510Z,7.25
2022-08-01T05:12:48.310Z,7.68
2022-08-01T05:15:18.423Z,7.28
2022-08-01T05:17:48.616Z,7.28
2022-08-01T05:20:25.086Z,8.00
2022-08-01T05:22:56.942Z,7.15
2022-08-01T05:25:57.689Z,8.50
2022-08-01T05:28:19.442Z,6.43
2022-08-01T05:30:49.675Z,5.30
2022-08-01T05:33:21.946Z,6.80
2022-08-01T05:35:55.109Z,6.05
2022-08-01T05:38:25.349Z,9.20
2022-08-01T05:40:56.572Z,6.30
2022-08-01T05:43:28.949Z,7.53
2022-08-01T05:45:59.882Z,5.33
2022-08-01T05:48:31.457Z,6.90
2022-08-01T05:51:04.667Z,5.57
2022-08-01T05:53:35.484Z,6.70
2022-08-01T05:56:05.934Z,7.90
2022-08-01T05:58:36.100Z,6.82
2022-08-01T06:01:07.161Z,6.65
2022-08-01T06:03:44.044Z,7.55
2022-08-01T06:06:17.845Z,10.50
2022-08-01T06:08:54.879Z,6.95
2022-08-01T06:11:30.378Z,6.32
2022-08-01T06:14:06.552Z,6.40
2022-08-01T06:16:36.876Z,6.90
2022-08-01T06:19:07.476Z,9.98
2022-08-01T06:21:40.574Z,7.90
2022-08-01T06:24:12.352Z,10.30
2022-08-01T06:26:44.006Z,10.35
2022-08-01T06:29:14.754Z,8.95
2022-08-01T06:31:44.897Z,7.63
2022-08-01T06:34:16.433Z,8.13
2022-08-01T06:36:49.450Z,9.10
2022-08-01T06:39:19.934Z,7.80
2022-08-01T06:41:52.242Z,9.35
2022-08-01T06:44:27.785Z,10.35
2022-08-01T06:47:01.648Z,8.55
2022-08-01T06:49:31.900Z,9.75
2022-08-01T06:52:08.718Z,12.48
2022-08-01T06:54:39.004Z,12.75
2022-08-01T06:57:10.521Z,9.70
2022-08-01T06:59:40.867Z,13.05
2022-08-01T07:02:31.208Z,10.32
2022-08-01T07:05:03.852Z,13.68
2022-08-01T07:07:36.860Z,13.13
2022-08-01T07:10:07.876Z,13.10
2022-08-01T07:12:39.216Z,16.05
2022-08-01T07:15:32.799Z,13.82
2022-08-01T07:18:06.074Z,21.48
2022-08-01T07:20:52.737Z,13.50
2022-08-01T07:23:30.385Z,18.05
2022-08-01T07:26:04.535Z,19.98
2022-08-01T07:28:35.351Z,14.68
2022-08-01T07:31:14.143Z,19.05
2022-08-01T07:33:48.373Z,15.20
2022-08-01T07:36:36.405Z,16.08
2022-08-01T07:39:09.700Z,19.38
2022-08-01T07:42:05.575Z,12.57
2022-08-01T07:44:35.842Z,18.75
2022-08-01T07:47:06.025Z,21.30
2022-08-01T07:49:40.428Z,12.25
2022-08-01T07:52:14.202Z,20.55
2022-08-01T07:55:02.514Z,15.88
2022-08-01T07:57:35.771Z,15.57
2022-08-01T08:02:36.940Z,15.68
2022-08-01T08:05:08.512Z,19.15
2022-08-01T08:07:38.621Z,17.63
2022-08-01T08:10:13.717Z,17.30
2022-08-01T08:12:43.873Z,15.95
2022-08-01T08:15:16.039Z,17.50
2022-08-01T08:17:50.299Z,18.77
2022-08-01T08:20:30.643Z,16.05
2022-08-01T08:23:41.411Z,16.60
2022-08-01T08:26:16.310Z,15.27
2022-08-01T08:28:51.340Z,14.30
2022-08-01T08:31:25.658Z,11.45
2022-08-01T08:34:11.770Z,15.88
2022-08-01T08:36:47.680Z,19.77
2022-08-01T08:39:20.744Z,14.02
2022-08-01T08:41:55.774Z,13.77
2022-08-01T08:44:26.971Z,12.43
2022-08-01T08:46:59.582Z,9.40
2022-08-01T08:49:36.058Z,12.47
2022-08-01T08:52:09.259Z,13.18
2022-08-01T08:54:41.096Z,11.57
2022-08-01T08:57:17.498Z,15.77
2022-08-01T08:59:47.696Z,14.45
2022-08-01T09:02:18.255Z,13.45
2022-08-01T09:04:51.187Z,13.10
2022-08-01T09:07:21.639Z,13.75
2022-08-01T09:09:54.966Z,12.57
2022-08-01T09:14:59.084Z,14.60
2022-08-01T09:17:29.317Z,15.77
2022-08-01T09:20:01.075Z,12.23
2022-08-01T09:22:38.521Z,8.38
2022-08-01T09:25:10.821Z,9.82
2022-08-01T09:27:44.215Z,12.30
2022-08-01T09:30:23.971Z,8.57
2022-08-01T09:33:06.380Z,9.60
2022-08-01T09:35:45.811Z,10.85
2022-08-01T09:38:21.443Z,11.10
2022-08-01T09:40:58.972Z,11.55
2022-08-01T09:43:33.276Z,8.68
2022-08-01T09:46:13.538Z,10.43
2022-08-01T09:49:00.009Z,9.93
2022-08-01T09:51:58.884Z,11.82
2022-08-01T09:54:36.620Z,11.98
2022-08-01T09:57:17.812Z,15.82
2022-08-01T10:00:01.287Z,11.75
2022-08-01T10:02:34.924Z,12.52
2022-08-01T10:05:08.781Z,11.02
2022-08-01T10:07:43.256Z,14.43
2022-08-01T10:10:16.549Z,11.73
2022-08-01T10:12:49.185Z,12.82
2022-08-01T10:15:37.026Z,9.75
2022-08-01T10:18:16.355Z,7.05
2022-08-01T10:20:52.815Z,11.70
2022-08-01T10:23:40.554Z,11.75
2022-08-01T10:26:14.941Z,11.00
2022-08-01T10:28:51.893Z,10.60
2022-08-01T10:31:30.826Z,8.45
2022-08-01T10:34:05.236Z,11.85
2022-08-01T10:36:40.860Z,12.02
2022-08-01T10:39:14.087Z,8.90
2022-08-01T10:41:50.389Z,9.02
2022-08-01T10:44:21.745Z,8.50
2022-08-01T10:47:01.942Z,5.63
2022-08-01T10:49:36.461Z,10.48
2022-08-01T10:52:06.924Z,7.53
2022-08-01T10:54:52.499Z,10.38
2022-08-01T10:57:27.501Z,11.25
2022-08-01T10:59:59.429Z,7.22
2022-08-01T11:02:35.861Z,7.63
2022-08-01T11:05:11.216Z,9.10
2022-08-01T11:07:52.257Z,9.70
2022-08-01T11:10:39.863Z,10.60
2022-08-01T11:13:13.491Z,9.38
2022-08-01T11:15:50.344Z,5.97
2022-08-01T11:18:41.637Z,9.63
2022-08-01T11:21:58.849Z,10.02
2022-08-01T11:24:05.214Z,11.10
2022-08-01T11:29:22.284Z,13.68
2022-08-01T11:31:53.589Z,7.57
2022-08-01T11:34:59.953Z,10.05
2022-08-01T11:37:52.629Z,7.75
2022-08-01T11:43:43.885Z,10.60
2022-08-01T11:46:28.814Z,8.63
2022-08-01T11:49:40.200Z,6.95
2022-08-01T11:52:23.733Z,6.38
2022-08-01T11:55:16.620Z,7.43
2022-08-01T12:00:47.131Z,8.35
2022-08-01T12:07:20.948Z,13.55
2022-08-01T12:10:10.848Z,7.88
2022-08-01T12:13:14.942Z,7.30
2022-08-01T12:15:47.387Z,6.70
2022-08-01T12:18:19.491Z,7.47
2022-08-01T12:20:58.204Z,5.77
2022-08-01T12:24:00.595Z,7.82
2022-08-01T12:26:44.781Z,9.15
2022-08-01T12:29:37.185Z,8.38
2022-08-01T12:32:08.008Z,6.50
2022-08-01T12:34:39.205Z,8.88
2022-08-01T12:37:09.622Z,7.03
2022-08-01T12:39:43.342Z,7.35
2022-08-01T12:42:14.077Z,6.32
2022-08-01T12:44:45.998Z,6.63
2022-08-01T12:47:17.417Z,10.95
2022-08-01T12:49:50.520Z,8.90
2022-08-01T12:55:16.157Z,6.35
2022-08-01T12:57:51.023Z,7.95
2022-08-01T13:00:25.613Z,7.63
2022-08-01T13:03:07.907Z,7.47
2022-08-01T13:05:49.411Z,11.18
2022-08-01T13:08:22.517Z,5.00
2022-08-01T13:13:43.414Z,5.55
2022-08-01T13:16:30.243Z,6.80
2022-08-01T13:19:05.961Z,6.55
2022-08-01T13:21:54.502Z,6.70
2022-08-01T13:24:31.207Z,7.00
2022-08-01T13:27:06.036Z,6.60
2022-08-01T13:29:40.145Z,8.30
2022-08-01T13:32:29.123Z,6.88
2022-08-01T13:35:16.008Z,7.20
2022-08-01T13:38:11.723Z,8.13
2022-08-01T13:40:46.982Z,5.07
2022-08-01T13:43:19.840Z,5.30
2022-08-01T13:45:51.324Z,8.02
2022-08-01T13:48:28.495Z,5.90
2022-08-01T13:53:52.300Z,6.30
2022-08-01T13:56:31.715Z,6.85
2022-08-01T13:59:06.706Z,8.32
2022-08-01T14:01:55.253Z,6.45
2022-08-01T14:05:16.394Z,4.15
2022-08-01T14:14:42.618Z,8.18
2022-08-01T14:17:14.622Z,7.28
2022-08-01T14:19:46.423Z,7.63
2022-08-01T14:22:16.574Z,6.97
2022-08-01T14:24:46.721Z,7.43
2022-08-01T14:27:17.704Z,7.18
2022-08-01T14:30:00.258Z,9.18
2022-08-01T14:32:34.639Z,8.05
2022-08-01T14:35:05.101Z,7.50
2022-08-01T14:37:38.715Z,8.98
2022-08-01T14:40:17.121Z,6.47
2022-08-01T14:42:53.933Z,8.60
2022-08-01T14:45:28.924Z,7.40
2022-08-01T14:48:00.783Z,6.97
2022-08-01T14:50:32.009Z,6.78
2022-08-01T14:53:01.922Z,9.98
2022-08-01T14:55:31.904Z,9.75
2022-08-01T14:58:03.386Z,7.13
2022-08-01T15:00:36.371Z,6.25
2022-08-01T15:05:37.537Z,8.98
2022-08-01T15:08:09.574Z,9.10
2022-08-01T15:10:39.811Z,7.50
2022-08-01T15:13:10.676Z,7.15
2022-08-01T15:15:43.276Z,9.77
2022-08-01T15:18:13.203Z,7.20
2022-08-01T15:20:43.297Z,7.18
2022-08-01T15:23:13.579Z,6.80
2022-08-01T15:25:43.853Z,6.47
2022-08-01T15:28:14.681Z,8.38
2022-08-01T15:30:47.310Z,10.23
2022-08-01T15:33:17.903Z,5.75
2022-08-01T15:35:48.006Z,6.63
2022-08-01T15:38:22.958Z,8.18
2022-08-01T15:40:55.888Z,6.82
2022-08-01T15:43:27.176Z,7.15
2022-08-01T15:46:04.339Z,10.47
2022-08-01T15:48:39.681Z,7.75
2022-08-01T15:51:10.602Z,7.30
2022-08-01T15:53:41.514Z,7.38
2022-08-01T15:56:14.583Z,7.55
2022-08-01T16:01:18.595Z,6.35
2022-08-01T16:03:48.868Z,6.15
2022-08-01T16:06:18.835Z,3.78
2022-08-01T16:08:51.082Z,5.13
2022-08-01T16:11:24.202Z,6.33
2022-08-01T16:14:00.388Z,8.70
2022-08-01T16:16:32.655Z,4.82
2022-08-01T16:19:05.769Z,6.47
2022-08-01T16:24:05.383Z,6.95
2022-08-01T16:26:38.858Z,7.65
2022-08-01T16:29:09.013Z,4.65
2022-08-01T16:31:51.734Z,7.15
2022-08-01T16:34:31.671Z,7.78
2022-08-01T16:37:03.129Z,6.47
2022-08-01T16:39:36.698Z,6.30
2022-08-01T16:42:07.820Z,6.93
2022-08-01T16:44:38.161Z,5.65
2022-08-01T16:47:11.690Z,5.65
2022-08-01T16:49:46.168Z,6.95
2022-08-01T16:52:16.622Z,5.13
2022-08-01T16:54:47.399Z,6.47
2022-08-01T16:57:17.374Z,4.93
2022-08-01T16:59:49.288Z,6.05
2022-08-01T17:02:22.910Z,5.72
2022-08-01T17:04:52.958Z,5.22
2022-08-01T17:07:25.182Z,7.05
2022-08-01T17:09:58.797Z,6.15
2022-08-01T17:12:29.520Z,4.95
2022-08-01T17:14:59.347Z,6.47
2022-08-01T17:17:32.404Z,6.63
2022-08-01T17:22:32.216Z,4.90
2022-08-01T17:25:02.649Z,6.57
2022-08-01T17:27:34.413Z,6.25
2022-08-01T17:30:07.248Z,6.60
2022-08-01T17:32:42.139Z,7.75
2022-08-01T17:35:15.654Z,5.93
2022-08-01T17:37:45.571Z,7.53
2022-08-01T17:40:39.221Z,4.68
2022-08-01T17:43:07.895Z,7.00
2022-08-01T17:45:51.344Z,6.15
2022-08-01T17:48:24.890Z,4.55
2022-08-01T17:50:55.385Z,5.80
2022-08-01T17:53:26.827Z,5.28
2022-08-01T17:56:01.798Z,5.75
2022-08-01T17:58:51.100Z,5.38
2022-08-01T18:01:26.979Z,6.20
2022-08-01T18:04:01.925Z,6.50
2022-08-01T18:06:32.287Z,6.68
2022-08-01T18:09:09.453Z,5.13
2022-08-01T18:11:41.724Z,7.85
2022-08-01T18:14:14.410Z,5.43
2022-08-01T18:16:44.294Z,4.13
2022-08-01T18:19:21.298Z,6.25
2022-08-01T18:21:51.489Z,6.68
2022-08-01T18:24:23.421Z,5.30
2022-08-01T18:26:55.060Z,4.82
2022-08-01T18:29:47.758Z,6.05
2022-08-01T18:32:16.791Z,10.15
2022-08-01T18:34:49.573Z,6.75
2022-08-01T18:37:19.963Z,7.13
2022-08-01T18:39:51.756Z,7.22
2022-08-01T18:42:30.692Z,9.70
2022-08-01T18:45:06.647Z,5.25
2022-08-01T18:47:39.327Z,5.45
2022-08-01T18:50:13.210Z,5.63
2022-08-01T18:52:48.650Z,7.03
2022-08-01T18:55:19.206Z,4.50
2022-08-01T18:57:51.778Z,5.88
2022-08-01T19:00:36.965Z,3.97
2022-08-01T19:03:12.810Z,6.03
2022-08-01T19:05:46.619Z,5.00
2022-08-01T19:08:16.598Z,7.10
2022-08-01T19:10:46.826Z,3.10
2022-08-01T19:13:19.107Z,4.50
2022-08-01T19:15:50.786Z,5.20
2022-08-01T19:18:22.072Z,4.95
2022-08-01T19:20:55.411Z,4.07
2022-08-01T19:23:38.962Z,6.95
2022-08-01T19:26:12.852Z,4.70
2022-08-01T19:28:49.611Z,5.10
2022-08-01T19:31:22.438Z,8.50
2022-08-01T19:33:56.856Z,8.98
2022-08-01T19:36:30.136Z,3.70
2022-08-01T19:39:01.469Z,3.67
2022-08-01T19:41:35.124Z,3.33
2022-08-01T19:44:07.343Z,5.82
2022-08-01T19:46:37.555Z,4.32
2022-08-01T19:49:07.870Z,6.15
2022-08-01T19:51:44.783Z,5.20
2022-08-01T19:54:16.541Z,4.45
2022-08-01T19:56:48.249Z,6.25
2022-08-01T19:59:22.422Z,5.63
2022-08-01T20:01:59.195Z,4.22
2022-08-01T20:04:29.764Z,8.75
2022-08-01T20:07:03.169Z,6.18
2022-08-01T20:12:04.622Z,4.57
2022-08-01T20:14:34.850Z,5.10
2022-08-01T20:17:05.166Z,6.00
2022-08-01T20:19:38.846Z,6.40
2022-08-01T20:22:15.925Z,6.82
2022-08-01T20:24:51.051Z,6.15
2022-08-01T20:27:28.096Z,4.70
2022-08-01T20:30:04.868Z,6.10
2022-08-01T20:32:36.681Z,5.60
2022-08-01T20:35:07.969Z,4.57
2022-08-01T20:38:06.263Z,6.32
2022-08-01T20:43:03.703Z,2.55
2022-08-01T20:45:34.126Z,3.83
2022-08-01T20:48:06.638Z,4.10
2022-08-01T20:50:54.074Z,5.65
2022-08-01T20:53:29.077Z,2.05
2022-08-01T20:56:09.338Z,5.80
2022-08-01T20:58:58.318Z,8.18
2022-08-01T21:01:34.451Z,5.07
2022-08-01T21:04:17.072Z,4.50
2022-08-01T21:06:58.546Z,5.80
2022-08-01T21:09:39.672Z,4.47
2022-08-01T21:12:15.665Z,6.30
2022-08-01T21:15:02.126Z,2.75
2022-08-01T21:17:44.135Z,2.97
2022-08-01T21:20:16.269Z,4.75
2022-08-01T21:23:01.448Z,6.03
2022-08-01T21:25:37.548Z,5.65
2022-08-01T21:28:08.756Z,4.57
2022-08-01T21:30:39.589Z,5.57
2022-08-01T21:33:14.853Z,4.78
2022-08-01T21:35:45.338Z,4.80
2022-08-01T21:38:19.348Z,6.72
2022-08-01T21:40:52.780Z,4.32
2022-08-01T21:43:25.945Z,5.18
2022-08-01T21:46:00.678Z,6.57
2022-08-01T21:48:37.333Z,5.47
2022-08-01T21:51:12.474Z,4.13
2022-08-01T21:53:50.886Z,5.97
2022-08-01T21:56:30.614Z,3.60
2022-08-01T21:59:14.944Z,6.65
2022-08-01T22:01:55.803Z,3.72
2022-08-01T22:04:36.675Z,4.85
2022-08-01T22:07:09.862Z,7.13
2022-08-01T22:09:42.210Z,5.00
2022-08-01T22:12:18.639Z,6.22
2022-08-01T22:14:52.478Z,5.65
2022-08-01T22:17:25.437Z,7.22
2022-08-01T22:19:57.020Z,4.60
2022-08-01T22:22:51.289Z,4.90
2022-08-01T22:25:25.421Z,5.50
2022-08-01T22:28:05.684Z,4.80
2022-08-01T22:30:44.347Z,5.55
2022-08-01T22:33:17.783Z,4.13
2022-08-01T22:38:22.783Z,4.93
2022-08-01T22:40:58.119Z,4.80
2022-08-01T22:43:38.690Z,3.47
2022-08-01T22:46:18.418Z,4.90
2022-08-01T22:48:53.693Z,5.28
2022-08-01T22:51:37.390Z,6.15
2022-08-01T22:54:09.996Z,3.33
2022-08-01T22:56:46.885Z,6.80
2022-08-01T22:59:43.019Z,6.10
2022-08-01T23:02:18.291Z,4.38
2022-08-01T23:04:52.648Z,6.45
2022-08-01T23:07:41.641Z,8.88
2022-08-01T23:10:13.148Z,4.93
2022-08-01T23:12:44.870Z,5.95
2022-08-01T23:15:30.825Z,5.50
2022-08-01T23:18:07.911Z,4.72
2022-08-01T23:20:39.924Z,7.10
2022-08-01T23:23:12.136Z,5.57
2022-08-01T23:25:44.289Z,5.82
2022-08-01T23:28:17.278Z,5.32
2022-08-01T23:30:51.195Z,7.57
2022-08-01T23:33:21.430Z,4.93
2022-08-01T23:35:52.464Z,7.38
2022-08-01T23:38:27.608Z,6.35
2022-08-01T23:41:01.077Z,4.82
2022-08-01T23:43:33.100Z,7.90
2022-08-01T23:46:06.054Z,5.75
2022-08-01T23:48:37.063Z,6.03
2022-08-01T23:51:09.434Z,5.18
2022-08-01T23:53:41.463Z,5.70
2022-08-01T23:56:20.777Z,6.50
2022-08-01T23:58:56.830Z,7.60
